Swift Current Airport
CYYN : now visible

Airfield :











YOU CAN JOIN US ON...

 
LOGIN :

Register | Disclaimer

   EN    FR    IT 

 









Legend :    VFR   Marginal VFR   IFR   Intensive IFR   Very Intensive IFR
Visi :
Ceiling :
>= 8 km
>= 3000ft
5 to 8 km
1000 to 3000 ft
1500m to 5 km
500 to 1000 ft
800 to 1500m
200 to 500 ft
< 800m
< 200 ft
Symbols :   Thunderstorms  Fog  Heavy snow  Heavy precipitations  Wind > 20 kt






- Airport Elevation : 2680 ft
- IATA code : YYN


CYYN - Swift Current

CURRENT METAR :
  • 220000Z AUTO 05005KT 9SM OVC017 M05/M07 A3010 RMK ICG SLP245

EXPIRED METARs :
  • 212310Z AUTO 07006KT 9SM BKN017 OVC065 M05/M07 A3008 RMK ICG SLP238
  • 212302Z AUTO 07007KT 9SM SCT017 OVC065 M05/M07 A3008 RMK ICG SLP238
  • 212200Z AUTO 07010KT 9SM OVC013 M04/M07 A3006 RMK ICG INTMT SLP229
  • 212121Z AUTO 10010KT 9SM BKN011 OVC060 M05/M07 A3004 RMK ICG SLP223

TAF TAF CYYN
Valid from the 22 at 00:00 until the 22 at 12:00 UTC


212338Z 2200/2212 07006KT P6SM SCT015 OVC060
TEMPO 2200/2203 2SM -SN BKN015 OVC060
FM220300 02008KT P6SM SCT020 OVC100
TEMPO 2203/2208 BKN020 OVC100
FM220800 32010KT P6SM SCT020 BKN120
TEMPO 2208/2212 2SM BR BKN020 BKN120 RMK FCST BASED ON AUTO OBS. NXT FCST BY 220600Z
CZWG FIR / North America



MET'MAP, your aeronautical weather chart ! - Copyright ORBIFLY December 2007 - Disclaimer

ORBIFLY MET'MAP TEAM :

Programming & Development : Alexandra Zaïnal
Concept & original design : Baudouin d'Aumeries
Assistance for programming : Marc-Olivier Méhu
Technical & hardware support : Manuel Goepfert

Contact : metmap@orbifly.com




SOURCES & CREDITS :

   NOAA       Earth
Advisory